ESMS/MMX METAR and TAF weather

Enter ICAO airport designator
Station Type Date Time Source
ESMS METAR 2019/10/16 18:50 UTC NOAA

ESMS 161850Z 28008KT 8000 -DZ BKN002 12/12 Q1005


Station Type Date Time Source
ESMS Decoded METAR 2019/10/16 18:50 UTC NOAA

Malmo / Sturup, Sweden (ESMS) 55-33N 013-22E
Oct 16, 2019 - 02:50 PM EDT / 2019.10.16 1850 UTC
Wind: from the W (280 degrees) at 9 MPH (8 KT):0
Visibility: 4 mile(s):0
Sky conditions: mostly cloudy
Weather: light drizzle
Temperature: 53 F (12 C)
Dew Point: 53 F (12 C)
Relative Humidity: 100%
Pressure (altimeter): 29.68 in. Hg (1005 hPa)
ob: ESMS 161850Z 28008KT 8000 -DZ BKN002 12/12 Q1005
cycle: 19

Station Type Date Time Source
ESMS TAF 2019/10/16 18:33 UTC NOAA

TAF ESMS 161701Z 1618/1718 29005KT 2000 BR BKN003
TEMPO 1618/1623 6000 RADZ BKN006
BECMG 1623/1701 SCT015 PROB40 1701/1705 0200 BCFG VV001
BECMG 1705/1707 BKN006
TEMPO 1707/1716 1200 BR BKN003
BECMG 1716/1718 BKN020

Example: see airport list